createdAt,value
2022-08-17T00:02:26.304Z,101114.66
2022-08-17T00:04:55.434Z,101114.66
2022-08-17T00:09:49.584Z,101131.06
2022-08-17T00:12:42.766Z,101121.91
2022-08-17T00:15:06.323Z,101113.63
2022-08-17T00:17:37.980Z,101118.44
2022-08-17T00:20:05.891Z,101112.88
2022-08-17T00:22:36.402Z,101106.16
2022-08-17T00:25:07.542Z,101105.44
2022-08-17T00:27:35.020Z,101117.91
2022-08-17T00:30:02.182Z,101111.91
2022-08-17T00:33:13.693Z,101111.91
2022-08-17T00:35:19.991Z,101113.94
2022-08-17T00:37:47.065Z,101111.13
2022-08-17T00:40:16.191Z,101116.66
2022-08-17T00:42:44.779Z,101121.56
2022-08-17T00:45:13.891Z,101125.94
2022-08-17T00:47:41.928Z,101115.88
2022-08-17T00:50:12.228Z,101116.25
2022-08-17T00:52:50.503Z,101123.88
2022-08-17T00:55:18.292Z,101117.50
2022-08-17T00:57:55.044Z,101111.66
2022-08-17T01:00:26.882Z,101108.94
2022-08-17T01:03:06.500Z,101120.50
2022-08-17T01:05:38.397Z,101118.91
2022-08-17T01:08:13.294Z,101118.59
2022-08-17T01:10:59.735Z,101125.88
2022-08-17T01:13:41.138Z,101121.84
2022-08-17T01:16:21.034Z,101131.13
2022-08-17T01:18:51.300Z,101131.16
2022-08-17T01:21:30.804Z,101136.41
2022-08-17T01:23:59.396Z,101120.00
2022-08-17T01:26:27.417Z,101116.44
2022-08-17T01:28:55.809Z,101114.50
2022-08-17T01:31:28.089Z,101108.53
2022-08-17T01:33:55.190Z,101108.22
2022-08-17T01:36:22.618Z,101104.38
2022-08-17T01:38:50.069Z,101102.84
2022-08-17T01:41:17.395Z,101109.00
2022-08-17T01:44:06.595Z,101103.84
2022-08-17T01:46:36.396Z,101096.34
2022-08-17T01:49:08.389Z,101106.00
2022-08-17T01:51:35.405Z,101101.25
2022-08-17T01:54:06.465Z,101106.88
2022-08-17T01:56:35.968Z,101110.22
2022-08-17T01:59:04.026Z,101122.25
2022-08-17T02:01:34.877Z,101122.28
2022-08-17T02:04:02.590Z,101118.31
2022-08-17T02:06:45.258Z,101114.69
2022-08-17T02:09:23.370Z,101116.66
2022-08-17T02:11:54.465Z,101116.59
2022-08-17T02:14:23.646Z,101113.38
2022-08-17T02:16:51.913Z,101110.63
2022-08-17T02:19:19.084Z,101115.00
2022-08-17T02:21:48.885Z,101116.69
2022-08-17T02:25:01.151Z,101115.56
2022-08-17T02:27:07.711Z,101116.41
2022-08-17T02:29:34.644Z,101117.63
2022-08-17T02:32:01.992Z,101113.25
2022-08-17T02:34:30.216Z,101114.06
2022-08-17T02:36:57.255Z,101114.06
2022-08-17T02:39:24.431Z,101110.06
2022-08-17T02:42:01.236Z,101106.13
2022-08-17T02:44:35.508Z,101110.88
2022-08-17T02:47:08.910Z,101101.25
2022-08-17T02:49:36.409Z,101104.09
2022-08-17T02:52:06.286Z,101114.50
2022-08-17T02:54:39.706Z,101116.13
2022-08-17T02:57:07.950Z,101107.06
2022-08-17T02:59:34.869Z,101105.19
2022-08-17T03:02:04.578Z,101120.06
2022-08-17T03:04:35.195Z,101117.31
2022-08-17T03:07:05.997Z,101112.53
2022-08-17T03:09:32.953Z,101112.88
2022-08-17T03:12:29.480Z,101112.53
2022-08-17T03:14:56.542Z,101107.31
2022-08-17T03:17:23.904Z,101104.13
2022-08-17T03:19:51.340Z,101110.53
2022-08-17T03:22:36.568Z,101109.34
2022-08-17T03:25:05.122Z,101105.78
2022-08-17T03:27:38.586Z,101104.59
2022-08-17T03:30:10.838Z,101107.78
2022-08-17T03:32:42.975Z,101110.19
2022-08-17T03:35:11.413Z,101108.91
2022-08-17T03:37:39.988Z,101106.88
2022-08-17T03:40:08.908Z,101109.25
2022-08-17T03:42:38.392Z,101116.44
2022-08-17T03:45:15.641Z,101120.03
2022-08-17T03:48:01.778Z,101117.16
2022-08-17T03:50:47.489Z,101107.16
2022-08-17T03:53:35.852Z,101105.53
2022-08-17T03:56:23.761Z,101107.88
2022-08-17T03:58:51.271Z,101118.75
2022-08-17T04:01:18.451Z,101121.56
2022-08-17T04:03:45.794Z,101105.19
2022-08-17T04:06:12.945Z,101119.13
2022-08-17T04:08:39.954Z,101123.97
2022-08-17T04:11:06.810Z,101124.41
2022-08-17T04:13:33.891Z,101123.25
2022-08-17T04:16:02.883Z,101121.22
2022-08-17T04:18:32.571Z,101129.59
2022-08-17T04:21:00.892Z,101121.56
2022-08-17T04:23:32.960Z,101124.31
2022-08-17T04:26:01.156Z,101134.75
2022-08-17T04:28:28.544Z,101144.38
2022-08-17T04:30:55.656Z,101136.75
2022-08-17T04:33:25.608Z,101144.38
2022-08-17T04:35:55.414Z,101137.22
2022-08-17T04:38:25.354Z,101140.81
2022-08-17T04:41:11.692Z,101141.19
2022-08-17T04:43:40.752Z,101148.34
2022-08-17T04:46:11.520Z,101144.72
2022-08-17T04:48:43.043Z,101134.34
2022-08-17T04:51:14.980Z,101131.63
2022-08-17T04:53:44.615Z,101127.28
2022-08-17T04:56:16.796Z,101126.81
2022-08-17T04:58:47.387Z,101127.53
2022-08-17T05:01:16.169Z,101133.75
2022-08-17T05:03:46.032Z,101136.84
2022-08-17T05:06:13.222Z,101136.41
2022-08-17T05:08:40.687Z,101138.69
2022-08-17T05:11:08.304Z,101147.41
2022-08-17T05:13:35.264Z,101140.97
2022-08-17T05:16:03.861Z,101137.84
2022-08-17T05:18:31.985Z,101146.59
2022-08-17T05:20:59.448Z,101150.59
2022-08-17T05:23:42.078Z,101144.63
2022-08-17T05:26:26.153Z,101143.13
2022-08-17T05:28:55.484Z,101145.09
2022-08-17T05:31:24.865Z,101146.22
2022-08-17T05:33:52.065Z,101164.19
2022-08-17T05:36:41.882Z,101169.38
2022-08-17T05:39:06.763Z,101182.50
2022-08-17T05:41:33.755Z,101182.41
2022-08-17T05:44:00.739Z,101185.88
2022-08-17T05:46:41.819Z,101182.50
2022-08-17T05:49:09.827Z,101186.38
2022-08-17T05:52:10.017Z,101182.59
2022-08-17T05:55:01.979Z,101197.31
2022-08-17T05:57:36.817Z,101195.47
2022-08-17T06:00:21.242Z,101212.25
2022-08-17T06:03:12.213Z,101219.84
2022-08-17T06:05:44.699Z,101214.50
2022-08-17T06:08:23.705Z,101214.47
2022-08-17T06:11:02.340Z,101218.78
2022-08-17T06:13:32.031Z,101223.19
2022-08-17T06:16:33.720Z,101231.56
2022-08-17T06:19:06.090Z,101236.72
2022-08-17T06:21:41.167Z,101239.97
2022-08-17T06:24:42.919Z,101238.69
2022-08-17T06:27:13.183Z,101237.47
2022-08-17T06:29:51.366Z,101247.53
2022-08-17T06:32:19.153Z,101248.81
2022-08-17T06:34:47.199Z,101247.09
2022-08-17T06:37:54.226Z,101250.25
2022-08-17T06:40:55.295Z,101251.34
2022-08-17T06:43:45.020Z,101256.88
2022-08-17T06:46:25.535Z,101253.72
2022-08-17T06:49:18.354Z,101252.94
2022-08-17T06:52:06.896Z,101254.09
2022-08-17T06:54:51.803Z,101254.16
2022-08-17T06:57:25.016Z,101252.25
2022-08-17T06:59:59.558Z,101244.25
2022-08-17T07:02:55.356Z,101244.25
2022-08-17T07:05:38.828Z,101267.94
2022-08-17T07:08:11.777Z,101270.66
2022-08-17T07:10:50.839Z,101278.38
2022-08-17T07:13:39.652Z,101264.78
2022-08-17T07:16:21.026Z,101242.53
2022-08-17T07:18:51.213Z,101238.16
2022-08-17T07:21:50.646Z,101234.06
2022-08-17T07:24:29.480Z,101231.06
2022-08-17T07:27:22.653Z,101226.75
2022-08-17T07:29:57.166Z,101231.00
2022-08-17T07:32:36.331Z,101226.44
2022-08-17T07:35:17.513Z,101239.47
2022-08-17T07:37:55.762Z,101237.06
2022-08-17T07:40:22.736Z,101228.25
2022-08-17T07:43:06.847Z,101226.63
2022-08-17T07:45:54.547Z,101225.31
2022-08-17T07:48:26.245Z,101221.16
2022-08-17T07:50:53.606Z,101233.41
2022-08-17T07:53:23.729Z,101225.91
2022-08-17T07:55:52.746Z,101228.13
2022-08-17T07:58:23.751Z,101236.56
2022-08-17T08:01:09.971Z,101246.34
2022-08-17T08:03:45.230Z,101251.22
2022-08-17T08:06:24.858Z,101246.91
2022-08-17T08:08:55.017Z,101252.69
2022-08-17T08:11:34.521Z,101261.63
2022-08-17T08:14:28.644Z,101265.88
2022-08-17T08:17:09.249Z,101273.06
2022-08-17T08:19:36.741Z,101277.78
2022-08-17T08:22:18.371Z,101281.91
2022-08-17T08:25:08.958Z,101283.13
2022-08-17T08:28:05.961Z,101292.75
2022-08-17T08:30:41.507Z,101306.69
2022-08-17T08:33:22.682Z,101308.06
2022-08-17T08:37:14.098Z,101317.66
2022-08-17T08:39:17.981Z,101319.16
2022-08-17T08:42:00.089Z,101330.06
2022-08-17T08:45:00.350Z,101333.72
2022-08-17T08:48:05.290Z,101308.94
2022-08-17T08:50:49.060Z,101311.53
2022-08-17T08:53:32.133Z,101294.91
2022-08-17T08:56:05.342Z,101302.25
2022-08-17T08:59:04.784Z,101300.88
2022-08-17T09:02:12.886Z,101303.69
2022-08-17T09:05:13.900Z,101312.13
2022-08-17T09:08:10.769Z,101310.59
2022-08-17T09:10:53.087Z,101283.09
2022-08-17T09:13:25.903Z,101282.19
2022-08-17T09:16:01.178Z,101275.22
2022-08-17T09:19:00.389Z,101295.44
2022-08-17T09:21:48.486Z,101299.16
2022-08-17T09:24:21.381Z,101303.34
2022-08-17T09:27:25.699Z,101304.66
2022-08-17T09:29:59.104Z,101305.19
2022-08-17T09:32:52.197Z,101297.53
2022-08-17T09:35:36.780Z,101296.63
2022-08-17T09:38:17.210Z,101285.47
2022-08-17T09:40:56.685Z,101276.53
2022-08-17T09:43:51.704Z,101276.41
2022-08-17T09:46:34.140Z,101273.88
2022-08-17T09:49:30.936Z,101280.31
2022-08-17T09:52:11.530Z,101280.16
2022-08-17T09:54:42.563Z,101286.88
2022-08-17T09:57:51.207Z,101289.34
2022-08-17T10:00:25.216Z,101292.16
2022-08-17T10:02:58.265Z,101295.31
2022-08-17T10:05:37.460Z,101295.38
2022-08-17T10:08:28.016Z,101293.06
2022-08-17T10:11:12.677Z,101291.53
2022-08-17T10:13:53.470Z,101287.44
2022-08-17T10:16:40.387Z,101268.34
2022-08-17T10:19:18.510Z,101275.47
2022-08-17T10:22:32.411Z,101281.28
2022-08-17T10:25:23.873Z,101290.22
2022-08-17T10:27:57.941Z,101289.38
2022-08-17T10:30:28.954Z,101295.72
2022-08-17T10:33:00.385Z,101303.44
2022-08-17T10:35:46.088Z,101306.44
2022-08-17T10:38:37.255Z,101314.66
2022-08-17T10:41:27.172Z,101315.78
2022-08-17T10:44:38.076Z,101315.91
2022-08-17T10:47:11.698Z,101322.94
2022-08-17T10:49:48.031Z,101320.63
2022-08-17T10:52:26.283Z,101319.16
2022-08-17T10:54:58.712Z,101331.22
2022-08-17T10:57:34.644Z,101319.66
2022-08-17T11:00:10.612Z,101317.19
2022-08-17T11:02:52.771Z,101315.25
2022-08-17T11:05:27.724Z,101302.03
2022-08-17T11:08:05.559Z,101312.97
2022-08-17T11:11:09.806Z,101297.91
2022-08-17T11:13:59.889Z,101286.31
2022-08-17T11:16:51.626Z,101285.59
2022-08-17T11:20:00.894Z,101274.16
2022-08-17T11:22:58.124Z,101271.47
2022-08-17T11:25:36.405Z,101263.03
2022-08-17T11:28:14.201Z,101267.47
2022-08-17T11:30:48.575Z,101260.97
2022-08-17T11:33:36.772Z,101254.16
2022-08-17T11:36:40.288Z,101251.56
2022-08-17T11:39:16.217Z,101259.94
2022-08-17T11:41:43.091Z,101246.69
2022-08-17T11:44:32.345Z,101263.59
2022-08-17T11:48:15.924Z,101250.72
2022-08-17T11:51:19.696Z,101241.75
2022-08-17T11:53:46.761Z,101243.13
2022-08-17T11:56:45.205Z,101238.88
2022-08-17T11:59:44.586Z,101250.84
2022-08-17T12:02:32.989Z,101248.03
2022-08-17T12:05:27.536Z,101251.19
2022-08-17T12:07:57.291Z,101248.47
2022-08-17T12:10:32.104Z,101243.19
2022-08-17T12:13:02.299Z,101253.34
2022-08-17T12:15:34.914Z,101245.81
2022-08-17T12:18:02.332Z,101252.56
2022-08-17T12:20:32.106Z,101265.09
2022-08-17T12:23:14.534Z,101261.47
2022-08-17T12:25:47.724Z,101261.72
2022-08-17T12:28:22.965Z,101259.13
2022-08-17T12:30:52.094Z,101256.28
2022-08-17T12:33:28.388Z,101260.59
2022-08-17T12:36:08.597Z,101258.31
2022-08-17T12:38:38.214Z,101255.84
2022-08-17T12:41:26.531Z,101257.63
2022-08-17T12:44:02.959Z,101271.91
2022-08-17T12:46:46.780Z,101262.94
2022-08-17T12:49:27.097Z,101257.19
2022-08-17T12:52:02.982Z,101262.16
2022-08-17T12:54:42.497Z,101265.28
2022-08-17T12:57:14.457Z,101262.00
2022-08-17T12:59:49.279Z,101275.28
2022-08-17T13:02:40.401Z,101281.03
2022-08-17T13:05:18.071Z,101286.28
2022-08-17T13:07:46.668Z,101287.19
2022-08-17T13:10:32.439Z,101286.00
2022-08-17T13:13:05.045Z,101286.19
2022-08-17T13:15:44.334Z,101286.56
2022-08-17T13:18:37.083Z,101292.88
2022-08-17T13:21:05.396Z,101281.25
2022-08-17T13:23:33.285Z,101274.97
2022-08-17T13:26:06.735Z,101272.41
2022-08-17T13:28:37.531Z,101274.84
2022-08-17T13:31:24.526Z,101278.19
2022-08-17T13:33:51.868Z,101271.81
2022-08-17T13:36:32.221Z,101278.97
2022-08-17T13:39:21.081Z,101271.38
2022-08-17T13:41:50.579Z,101267.88
2022-08-17T13:44:37.184Z,101260.00
2022-08-17T13:47:19.753Z,101269.88
2022-08-17T13:49:49.255Z,101267.53
2022-08-17T13:52:41.057Z,101263.69
2022-08-17T13:55:19.794Z,101267.28
2022-08-17T13:58:03.572Z,101265.13
2022-08-17T14:00:36.589Z,101250.00
2022-08-17T14:03:05.689Z,101259.66
2022-08-17T14:05:33.910Z,101256.53
2022-08-17T14:08:06.678Z,101249.47
2022-08-17T14:10:36.612Z,101244.28
2022-08-17T14:13:04.872Z,101228.88
2022-08-17T14:15:55.039Z,101230.03
2022-08-17T14:18:55.806Z,101237.44
2022-08-17T14:21:08.572Z,101236.09
2022-08-17T14:23:36.851Z,101227.56
2022-08-17T14:26:04.895Z,101230.28
2022-08-17T14:28:32.047Z,101239.38
2022-08-17T14:31:00.908Z,101234.63
2022-08-17T14:33:29.174Z,101236.72
2022-08-17T14:35:57.758Z,101245.38
2022-08-17T14:38:25.050Z,101230.75
2022-08-17T14:40:52.546Z,101249.66
2022-08-17T14:43:20.966Z,101267.28
2022-08-17T14:45:47.935Z,101289.94
2022-08-17T14:48:14.896Z,101302.84
2022-08-17T14:50:44.095Z,101322.28
2022-08-17T14:53:13.742Z,101336.28
2022-08-17T14:55:40.911Z,101357.47
2022-08-17T14:58:09.413Z,101353.22
2022-08-17T15:00:37.885Z,101343.91
2022-08-17T15:03:05.980Z,101319.47
2022-08-17T15:05:37.033Z,101308.94
2022-08-17T15:08:05.793Z,101297.75
2022-08-17T15:10:33.060Z,101292.28
2022-08-17T15:13:00.644Z,101290.97
2022-08-17T15:15:28.828Z,101300.13
2022-08-17T15:17:56.790Z,101293.22
2022-08-17T15:20:28.129Z,101289.59
2022-08-17T15:22:57.595Z,101288.81
2022-08-17T15:25:32.037Z,101293.78
2022-08-17T15:27:59.973Z,101288.94
2022-08-17T15:30:27.881Z,101276.69
2022-08-17T15:32:56.717Z,101270.78
2022-08-17T15:35:29.113Z,101268.25
2022-08-17T15:38:08.053Z,101268.03
2022-08-17T15:40:40.630Z,101267.03
2022-08-17T15:43:14.570Z,101251.69
2022-08-17T15:45:41.932Z,101254.19
2022-08-17T15:48:09.632Z,101259.22
2022-08-17T15:50:36.908Z,101248.75
2022-08-17T15:53:05.095Z,101252.00
2022-08-17T15:55:33.256Z,101244.78
2022-08-17T15:58:00.704Z,101242.19
2022-08-17T16:00:29.561Z,101241.50
2022-08-17T16:03:13.529Z,101256.41
2022-08-17T16:05:47.979Z,101251.19
2022-08-17T16:08:20.658Z,101247.59
2022-08-17T16:10:50.100Z,101241.22
2022-08-17T16:13:18.872Z,101235.88
2022-08-17T16:15:56.226Z,101239.06
2022-08-17T16:18:31.895Z,101241.78
2022-08-17T16:21:23.441Z,101238.13
2022-08-17T16:23:53.656Z,101232.22
2022-08-17T16:26:23.015Z,101228.47
2022-08-17T16:28:51.399Z,101233.63
2022-08-17T16:31:18.526Z,101235.84
2022-08-17T16:34:16.369Z,101240.72
2022-08-17T16:36:32.716Z,101248.56
2022-08-17T16:39:00.679Z,101257.22
2022-08-17T16:41:45.189Z,101260.50
2022-08-17T16:44:17.528Z,101260.91
2022-08-17T16:46:46.167Z,101255.56
2022-08-17T16:49:36.134Z,101251.22
2022-08-17T16:52:03.426Z,101246.91
2022-08-17T16:54:30.360Z,101253.44
2022-08-17T16:56:57.276Z,101253.78
2022-08-17T16:59:31.020Z,101252.41
2022-08-17T17:02:11.417Z,101240.44
2022-08-17T17:04:50.945Z,101239.34
2022-08-17T17:07:51.451Z,101232.03
2022-08-17T17:10:46.759Z,101227.22
2022-08-17T17:13:30.655Z,101222.50
2022-08-17T17:16:14.659Z,101224.28
2022-08-17T17:18:51.534Z,101224.13
2022-08-17T17:21:23.190Z,101218.97
2022-08-17T17:23:56.452Z,101225.41
2022-08-17T17:27:00.589Z,101231.13
2022-08-17T17:29:47.456Z,101214.03
2022-08-17T17:32:52.776Z,101215.72
2022-08-17T17:35:20.917Z,101205.72
2022-08-17T17:37:48.687Z,101200.47
2022-08-17T17:40:37.945Z,101205.34
2022-08-17T17:43:34.869Z,101198.25
2022-08-17T17:45:56.994Z,101196.75
2022-08-17T17:48:28.989Z,101194.75
2022-08-17T17:52:06.806Z,101185.25
2022-08-17T17:54:48.025Z,101192.13
2022-08-17T17:57:36.810Z,101187.31
2022-08-17T18:00:13.011Z,101183.66
2022-08-17T18:03:03.404Z,101180.81
2022-08-17T18:05:49.057Z,101194.84
2022-08-17T18:08:32.078Z,101201.25
2022-08-17T18:11:13.118Z,101204.41
2022-08-17T18:14:16.407Z,101200.00
2022-08-17T18:16:44.998Z,101199.66
2022-08-17T18:19:20.542Z,101199.28
2022-08-17T18:21:53.064Z,101201.28
2022-08-17T18:24:34.737Z,101205.25
2022-08-17T18:27:08.389Z,101210.06
2022-08-17T18:29:44.263Z,101211.72
2022-08-17T18:32:28.526Z,101217.75
2022-08-17T18:35:18.469Z,101208.94
2022-08-17T18:38:17.983Z,101216.22
2022-08-17T18:40:48.247Z,101209.50
2022-08-17T18:43:53.475Z,101210.81
2022-08-17T18:46:35.382Z,101232.81
2022-08-17T18:49:24.420Z,101236.06
2022-08-17T18:52:17.725Z,101244.94
2022-08-17T18:55:25.075Z,101245.94
2022-08-17T18:57:55.696Z,101250.53
2022-08-17T19:00:43.781Z,101252.44
2022-08-17T19:03:16.812Z,101258.50
2022-08-17T19:05:48.674Z,101268.94
2022-08-17T19:08:22.610Z,101269.75
2022-08-17T19:11:17.020Z,101282.53
2022-08-17T19:13:52.074Z,101279.31
2022-08-17T19:16:25.757Z,101286.94
2022-08-17T19:19:02.200Z,101280.13
2022-08-17T19:21:37.485Z,101283.31
2022-08-17T19:24:19.918Z,101296.88
2022-08-17T19:26:56.677Z,101281.66
2022-08-17T19:29:50.845Z,101284.44
2022-08-17T19:32:25.521Z,101278.50
2022-08-17T19:34:53.365Z,101284.13
2022-08-17T19:37:45.002Z,101281.34
2022-08-17T19:40:51.710Z,101267.31
2022-08-17T19:43:39.979Z,101266.19
2022-08-17T19:46:15.880Z,101257.84
2022-08-17T19:48:51.873Z,101263.00
2022-08-17T19:51:24.513Z,101267.78
2022-08-17T19:54:06.339Z,101268.63
2022-08-17T19:56:39.746Z,101277.38
2022-08-17T19:59:49.082Z,101278.63
2022-08-17T20:02:35.788Z,101277.78
2022-08-17T20:05:11.406Z,101278.97
2022-08-17T20:08:13.323Z,101282.22
2022-08-17T20:10:55.062Z,101279.44
2022-08-17T20:13:33.158Z,101282.25
2022-08-17T20:16:01.879Z,101285.41
2022-08-17T20:19:00.108Z,101289.88
2022-08-17T20:21:34.640Z,101288.25
2022-08-17T20:24:24.807Z,101295.44
2022-08-17T20:26:58.382Z,101299.03
2022-08-17T20:29:37.091Z,101294.25
2022-08-17T20:32:14.946Z,101289.88
2022-08-17T20:34:46.725Z,101297.88
2022-08-17T20:37:14.264Z,101295.09
2022-08-17T20:39:50.958Z,101300.25
2022-08-17T20:42:21.329Z,101305.09
2022-08-17T20:44:52.377Z,101300.69
2022-08-17T20:47:27.323Z,101297.50
2022-08-17T20:50:15.585Z,101298.72
2022-08-17T20:52:42.853Z,101294.75
2022-08-17T20:55:35.791Z,101298.75
2022-08-17T20:58:24.852Z,101297.13
2022-08-17T21:00:58.808Z,101297.53
2022-08-17T21:03:39.954Z,101296.38
2022-08-17T21:06:19.597Z,101297.22
2022-08-17T21:08:54.415Z,101296.38
2022-08-17T21:11:56.833Z,101305.97
2022-08-17T21:14:45.032Z,101307.56
2022-08-17T21:17:34.076Z,101312.34
2022-08-17T21:20:27.250Z,101301.53
2022-08-17T21:23:47.136Z,101302.72
2022-08-17T21:26:30.663Z,101302.72
2022-08-17T21:29:31.467Z,101310.72
2022-08-17T21:32:00.602Z,101302.72
2022-08-17T21:34:45.386Z,101297.91
2022-08-17T21:37:26.347Z,101305.88
2022-08-17T21:40:10.145Z,101301.13
2022-08-17T21:42:48.946Z,101305.13
2022-08-17T21:45:25.313Z,101306.34
2022-08-17T21:48:14.259Z,101299.94
2022-08-17T21:50:44.823Z,101302.78
2022-08-17T21:53:23.024Z,101299.22
2022-08-17T21:55:52.430Z,101295.22
2022-08-17T21:58:31.571Z,101294.06
2022-08-17T22:01:25.466Z,101298.50
2022-08-17T22:04:00.410Z,101294.91
2022-08-17T22:06:38.927Z,101291.34
2022-08-17T22:09:14.165Z,101285.75
2022-08-17T22:12:31.552Z,101285.38
2022-08-17T22:15:06.114Z,101285.00
2022-08-17T22:17:35.706Z,101279.78
2022-08-17T22:20:19.287Z,101280.94
2022-08-17T22:23:05.388Z,101286.91
2022-08-17T22:25:36.089Z,101295.66
2022-08-17T22:28:06.237Z,101298.84
2022-08-17T22:30:40.696Z,101299.94
2022-08-17T22:33:29.189Z,101302.72
2022-08-17T22:36:32.742Z,101306.28
2022-08-17T22:39:23.070Z,101299.88
2022-08-17T22:41:56.506Z,101308.19
2022-08-17T22:44:31.828Z,101319.75
2022-08-17T22:47:26.863Z,101322.94
2022-08-17T22:50:00.243Z,101323.31
2022-08-17T22:53:01.885Z,101328.09
2022-08-17T22:55:52.642Z,101332.06
2022-08-17T22:58:42.619Z,101339.28
2022-08-17T23:01:36.403Z,101342.03
2022-08-17T23:04:09.754Z,101336.44
2022-08-17T23:06:43.914Z,101332.38
2022-08-17T23:09:12.397Z,101327.94
2022-08-17T23:11:52.525Z,101325.56
2022-08-17T23:14:30.268Z,101328.75
2022-08-17T23:17:01.149Z,101323.16
2022-08-17T23:19:31.826Z,101326.38
2022-08-17T23:22:08.176Z,101317.16
2022-08-17T23:24:47.005Z,101326.75
2022-08-17T23:27:14.083Z,101322.78
2022-08-17T23:29:42.107Z,101325.22
2022-08-17T23:32:14.387Z,101326.38
2022-08-17T23:34:43.083Z,101323.50
2022-08-17T23:37:11.686Z,101321.16
2022-08-17T23:39:39.562Z,101319.53
2022-08-17T23:42:08.768Z,101313.94
2022-08-17T23:44:38.256Z,101316.75
2022-08-17T23:47:05.802Z,101317.19
2022-08-17T23:49:33.097Z,101311.53
2022-08-17T23:52:01.955Z,101320.69
2022-08-17T23:54:35.228Z,101321.91
2022-08-17T23:57:04.849Z,101317.53
2022-08-17T23:59:34.029Z,101319.13
